EGPM

Scatsta Airport

Shetland Islands, United Kingdom
METAR EGPM 280050Z AUTO VRB05KT 9999 NCD 11/08 Q1024
Observed Flight Rules
May-28 @ 00:50 UTC (34 minutes ago) Visual Flight Rules
Wind Visibility Clouds
Variable at 5 knots 10,000+ meters
  • Clear skies
Temperatures Readings
Current 11°C / 52°F
Dewpoint 8°C / 46°F
Humidity 82%
Altimeter 30.24" Hg
Pressure 1024 hPa
Elevation 22
METAR EGPM 280050Z AUTO VRB05KT 9999 NCD 11/08 Q1024
Observed Flight Rules
May-28 @ 00:50 UTC
(34 minutes ago)
VFR
Wind Visibility
Variable at 5 knots 10,000+ meters
Clouds
  • Clear skies
Temperature Dewpoint
11°C / 52°F 8°C / 46°F
Humidity Altimeter Pressure
82% 30.24" Hg 1024 hPa